sensor_id;sensor_type;location;lat;lon;timestamp;P1;durP1;ratioP1;P2;durP2;ratioP2
62437;SDS011;48481;0.000;0.000;2023-05-10T00:00:21;4.03;;;2.00;;
62437;SDS011;48481;0.000;0.000;2023-05-10T00:02:48;3.72;;;1.80;;
62437;SDS011;48481;0.000;0.000;2023-05-10T00:05:14;5.28;;;2.38;;
62437;SDS011;48481;0.000;0.000;2023-05-10T00:07:39;5.63;;;2.17;;
62437;SDS011;48481;0.000;0.000;2023-05-10T00:10:06;2.38;;;2.17;;
62437;SDS011;48481;0.000;0.000;2023-05-10T00:12:32;4.32;;;2.22;;
62437;SDS011;48481;0.000;0.000;2023-05-10T00:14:57;1.92;;;1.60;;
62437;SDS011;48481;0.000;0.000;2023-05-10T00:17:22;5.05;;;2.30;;
62437;SDS011;48481;0.000;0.000;2023-05-10T00:19:48;4.03;;;2.30;;
62437;SDS011;48481;0.000;0.000;2023-05-10T00:22:13;2.88;;;2.55;;
62437;SDS011;48481;0.000;0.000;2023-05-10T00:24:39;4.93;;;2.47;;
62437;SDS011;48481;0.000;0.000;2023-05-10T00:27:04;2.78;;;2.22;;
62437;SDS011;48481;0.000;0.000;2023-05-10T00:29:29;3.92;;;2.22;;
62437;SDS011;48481;0.000;0.000;2023-05-10T00:31:55;3.25;;;2.00;;
62437;SDS011;48481;0.000;0.000;2023-05-10T00:34:21;2.65;;;2.25;;
62437;SDS011;48481;0.000;0.000;2023-05-10T00:36:46;4.05;;;1.88;;
62437;SDS011;48481;0.000;0.000;2023-05-10T00:39:12;5.63;;;2.20;;
62437;SDS011;48481;0.000;0.000;2023-05-10T00:41:37;3.47;;;1.90;;
62437;SDS011;48481;0.000;0.000;2023-05-10T00:44:03;3.50;;;2.17;;
62437;SDS011;48481;0.000;0.000;2023-05-10T00:46:29;3.63;;;2.67;;
62437;SDS011;48481;0.000;0.000;2023-05-10T00:48:54;8.70;;;3.15;;
62437;SDS011;48481;0.000;0.000;2023-05-10T00:51:20;4.18;;;2.60;;
62437;SDS011;48481;0.000;0.000;2023-05-10T00:53:46;3.80;;;2.42;;
62437;SDS011;48481;0.000;0.000;2023-05-10T00:56:11;2.72;;;2.38;;
62437;SDS011;48481;0.000;0.000;2023-05-10T00:58:37;5.53;;;2.42;;
62437;SDS011;48481;0.000;0.000;2023-05-10T01:01:03;3.20;;;2.80;;
62437;SDS011;48481;0.000;0.000;2023-05-10T01:03:29;3.80;;;2.25;;
62437;SDS011;48481;0.000;0.000;2023-05-10T01:05:56;2.58;;;2.38;;
62437;SDS011;48481;0.000;0.000;2023-05-10T01:08:21;5.25;;;2.25;;
62437;SDS011;48481;0.000;0.000;2023-05-10T01:10:47;3.15;;;2.25;;
62437;SDS011;48481;0.000;0.000;2023-05-10T01:13:16;2.33;;;2.22;;
62437;SDS011;48481;0.000;0.000;2023-05-10T01:15:48;3.10;;;1.98;;
62437;SDS011;48481;0.000;0.000;2023-05-10T01:18:13;5.05;;;2.33;;
62437;SDS011;48481;0.000;0.000;2023-05-10T01:20:41;5.90;;;2.97;;
62437;SDS011;48481;0.000;0.000;2023-05-10T01:26:14;2.63;;;2.25;;
62437;SDS011;48481;0.000;0.000;2023-05-10T01:31:30;6.00;;;2.85;;
62437;SDS011;48481;0.000;0.000;2023-05-10T01:34:07;2.63;;;2.42;;
62437;SDS011;48481;0.000;0.000;2023-05-10T01:36:40;6.32;;;2.25;;
62437;SDS011;48481;0.000;0.000;2023-05-10T01:41:52;5.78;;;2.28;;
62437;SDS011;48481;0.000;0.000;2023-05-10T01:44:34;10.13;;;2.92;;
62437;SDS011;48481;0.000;0.000;2023-05-10T01:47:05;2.63;;;2.30;;
62437;SDS011;48481;0.000;0.000;2023-05-10T01:49:36;2.65;;;2.45;;
62437;SDS011;48481;0.000;0.000;2023-05-10T01:52:10;3.08;;;2.53;;
62437;SDS011;48481;0.000;0.000;2023-05-10T01:54:40;2.40;;;2.20;;
62437;SDS011;48481;0.000;0.000;2023-05-10T01:57:09;2.83;;;2.08;;
62437;SDS011;48481;0.000;0.000;2023-05-10T01:59:39;2.22;;;2.08;;
62437;SDS011;48481;0.000;0.000;2023-05-10T02:02:08;3.15;;;2.80;;
62437;SDS011;48481;0.000;0.000;2023-05-10T02:04:37;2.60;;;2.05;;
62437;SDS011;48481;0.000;0.000;2023-05-10T02:07:04;2.30;;;2.10;;
62437;SDS011;48481;0.000;0.000;2023-05-10T02:09:32;2.92;;;2.47;;
62437;SDS011;48481;0.000;0.000;2023-05-10T02:11:59;3.00;;;2.47;;
62437;SDS011;48481;0.000;0.000;2023-05-10T02:14:27;4.07;;;2.47;;
62437;SDS011;48481;0.000;0.000;2023-05-10T02:16:55;2.72;;;2.50;;
62437;SDS011;48481;0.000;0.000;2023-05-10T02:19:22;4.03;;;2.50;;
62437;SDS011;48481;0.000;0.000;2023-05-10T02:21:49;3.28;;;2.30;;
62437;SDS011;48481;0.000;0.000;2023-05-10T02:24:16;10.82;;;2.38;;
62437;SDS011;48481;0.000;0.000;2023-05-10T02:26:44;3.55;;;2.15;;
62437;SDS011;48481;0.000;0.000;2023-05-10T02:29:11;3.80;;;2.65;;
62437;SDS011;48481;0.000;0.000;2023-05-10T02:31:39;3.13;;;2.45;;
62437;SDS011;48481;0.000;0.000;2023-05-10T02:34:08;2.42;;;2.22;;
62437;SDS011;48481;0.000;0.000;2023-05-10T02:36:35;2.05;;;1.83;;
62437;SDS011;48481;0.000;0.000;2023-05-10T02:39:02;4.20;;;2.65;;
62437;SDS011;48481;0.000;0.000;2023-05-10T02:41:30;2.22;;;2.10;;
62437;SDS011;48481;0.000;0.000;2023-05-10T02:43:57;2.50;;;2.28;;
62437;SDS011;48481;0.000;0.000;2023-05-10T02:46:26;2.90;;;2.33;;
62437;SDS011;48481;0.000;0.000;2023-05-10T02:48:51;2.60;;;2.40;;
62437;SDS011;48481;0.000;0.000;2023-05-10T02:51:16;2.97;;;2.60;;
62437;SDS011;48481;0.000;0.000;2023-05-10T02:53:45;4.38;;;3.17;;
62437;SDS011;48481;0.000;0.000;2023-05-10T02:56:46;2.75;;;2.45;;
62437;SDS011;48481;0.000;0.000;2023-05-10T02:59:11;3.92;;;2.40;;
62437;SDS011;48481;0.000;0.000;2023-05-10T03:01:37;3.92;;;3.15;;
62437;SDS011;48481;0.000;0.000;2023-05-10T03:04:03;3.25;;;2.47;;
62437;SDS011;48481;0.000;0.000;2023-05-10T03:06:28;3.45;;;2.70;;
62437;SDS011;48481;0.000;0.000;2023-05-10T03:08:54;5.88;;;2.65;;
62437;SDS011;48481;0.000;0.000;2023-05-10T03:14:00;3.20;;;2.90;;
62437;SDS011;48481;0.000;0.000;2023-05-10T03:16:40;3.88;;;2.35;;
62437;SDS011;48481;0.000;0.000;2023-05-10T03:19:15;3.45;;;2.75;;
62437;SDS011;48481;0.000;0.000;2023-05-10T03:21:49;5.32;;;2.72;;
62437;SDS011;48481;0.000;0.000;2023-05-10T03:24:17;2.95;;;2.65;;
62437;SDS011;48481;0.000;0.000;2023-05-10T03:26:46;4.68;;;2.75;;
62437;SDS011;48481;0.000;0.000;2023-05-10T03:29:13;2.85;;;2.58;;
62437;SDS011;48481;0.000;0.000;2023-05-10T03:31:40;2.65;;;2.42;;
62437;SDS011;48481;0.000;0.000;2023-05-10T03:34:06;4.45;;;2.72;;
62437;SDS011;48481;0.000;0.000;2023-05-10T03:36:32;6.22;;;3.53;;
62437;SDS011;48481;0.000;0.000;2023-05-10T03:38:57;3.38;;;2.60;;
62437;SDS011;48481;0.000;0.000;2023-05-10T03:41:22;5.22;;;2.55;;
62437;SDS011;48481;0.000;0.000;2023-05-10T03:43:48;2.50;;;2.30;;
62437;SDS011;48481;0.000;0.000;2023-05-10T03:46:13;7.10;;;2.47;;
62437;SDS011;48481;0.000;0.000;2023-05-10T03:48:39;2.47;;;2.38;;
62437;SDS011;48481;0.000;0.000;2023-05-10T03:51:04;4.55;;;2.70;;
62437;SDS011;48481;0.000;0.000;2023-05-10T03:53:30;2.38;;;2.17;;
62437;SDS011;48481;0.000;0.000;2023-05-10T03:55:55;2.70;;;2.50;;
62437;SDS011;48481;0.000;0.000;2023-05-10T03:58:20;4.32;;;2.67;;
62437;SDS011;48481;0.000;0.000;2023-05-10T04:00:46;3.33;;;3.00;;
62437;SDS011;48481;0.000;0.000;2023-05-10T04:03:12;3.90;;;2.33;;
62437;SDS011;48481;0.000;0.000;2023-05-10T04:05:38;2.63;;;2.42;;
62437;SDS011;48481;0.000;0.000;2023-05-10T04:08:04;5.93;;;2.40;;
62437;SDS011;48481;0.000;0.000;2023-05-10T04:10:30;2.58;;;2.30;;
62437;SDS011;48481;0.000;0.000;2023-05-10T04:12:55;2.85;;;2.58;;
62437;SDS011;48481;0.000;0.000;2023-05-10T04:15:21;2.78;;;2.58;;
62437;SDS011;48481;0.000;0.000;2023-05-10T04:17:46;3.42;;;2.80;;
62437;SDS011;48481;0.000;0.000;2023-05-10T04:20:12;5.50;;;2.40;;
62437;SDS011;48481;0.000;0.000;2023-05-10T04:22:38;9.63;;;2.85;;
62437;SDS011;48481;0.000;0.000;2023-05-10T04:25:03;5.63;;;2.47;;
62437;SDS011;48481;0.000;0.000;2023-05-10T04:27:29;3.17;;;2.88;;
62437;SDS011;48481;0.000;0.000;2023-05-10T04:29:55;5.63;;;2.58;;
62437;SDS011;48481;0.000;0.000;2023-05-10T04:32:21;5.25;;;2.58;;
62437;SDS011;48481;0.000;0.000;2023-05-10T04:34:46;3.28;;;3.00;;
62437;SDS011;48481;0.000;0.000;2023-05-10T04:37:12;4.28;;;3.28;;
62437;SDS011;48481;0.000;0.000;2023-05-10T04:39:37;4.90;;;2.40;;
62437;SDS011;48481;0.000;0.000;2023-05-10T04:42:04;7.20;;;2.72;;
62437;SDS011;48481;0.000;0.000;2023-05-10T04:44:31;2.38;;;2.17;;
62437;SDS011;48481;0.000;0.000;2023-05-10T04:46:59;3.30;;;2.58;;
62437;SDS011;48481;0.000;0.000;2023-05-10T04:49:26;5.70;;;2.83;;
62437;SDS011;48481;0.000;0.000;2023-05-10T04:51:51;8.52;;;2.83;;
62437;SDS011;48481;0.000;0.000;2023-05-10T04:54:16;3.15;;;2.83;;
62437;SDS011;48481;0.000;0.000;2023-05-10T04:56:42;5.32;;;2.85;;
62437;SDS011;48481;0.000;0.000;2023-05-10T04:59:07;2.83;;;2.35;;
62437;SDS011;48481;0.000;0.000;2023-05-10T05:01:33;2.75;;;2.40;;
62437;SDS011;48481;0.000;0.000;2023-05-10T05:03:58;3.85;;;2.67;;
62437;SDS011;48481;0.000;0.000;2023-05-10T05:06:24;2.78;;;2.47;;
62437;SDS011;48481;0.000;0.000;2023-05-10T05:08:50;3.17;;;2.90;;
62437;SDS011;48481;0.000;0.000;2023-05-10T05:11:16;2.67;;;2.35;;
62437;SDS011;48481;0.000;0.000;2023-05-10T05:13:42;4.75;;;3.15;;
62437;SDS011;48481;0.000;0.000;2023-05-10T05:16:07;5.13;;;3.00;;
62437;SDS011;48481;0.000;0.000;2023-05-10T05:18:32;8.20;;;2.72;;
62437;SDS011;48481;0.000;0.000;2023-05-10T05:20:58;3.33;;;2.50;;
62437;SDS011;48481;0.000;0.000;2023-05-10T05:23:24;2.35;;;2.15;;
62437;SDS011;48481;0.000;0.000;2023-05-10T05:25:51;5.43;;;2.30;;
62437;SDS011;48481;0.000;0.000;2023-05-10T05:28:17;3.05;;;2.55;;
62437;SDS011;48481;0.000;0.000;2023-05-10T05:30:43;3.83;;;2.90;;
62437;SDS011;48481;0.000;0.000;2023-05-10T05:33:08;3.75;;;3.25;;
62437;SDS011;48481;0.000;0.000;2023-05-10T05:35:33;5.15;;;2.85;;
62437;SDS011;48481;0.000;0.000;2023-05-10T05:37:59;7.18;;;3.33;;
62437;SDS011;48481;0.000;0.000;2023-05-10T05:40:24;3.08;;;2.88;;
62437;SDS011;48481;0.000;0.000;2023-05-10T05:42:50;4.93;;;2.85;;
62437;SDS011;48481;0.000;0.000;2023-05-10T05:45:15;5.78;;;3.38;;
62437;SDS011;48481;0.000;0.000;2023-05-10T05:47:41;5.18;;;3.22;;
62437;SDS011;48481;0.000;0.000;2023-05-10T05:50:06;3.38;;;3.08;;
62437;SDS011;48481;0.000;0.000;2023-05-10T05:52:32;10.15;;;3.33;;
62437;SDS011;48481;0.000;0.000;2023-05-10T05:54:58;6.80;;;3.17;;
62437;SDS011;48481;0.000;0.000;2023-05-10T05:57:23;5.45;;;3.22;;
62437;SDS011;48481;0.000;0.000;2023-05-10T05:59:49;3.25;;;2.95;;
62437;SDS011;48481;0.000;0.000;2023-05-10T06:02:14;10.23;;;3.00;;
62437;SDS011;48481;0.000;0.000;2023-05-10T06:04:40;3.30;;;2.97;;
62437;SDS011;48481;0.000;0.000;2023-05-10T06:07:05;5.03;;;3.15;;
62437;SDS011;48481;0.000;0.000;2023-05-10T06:09:30;5.30;;;3.13;;
62437;SDS011;48481;0.000;0.000;2023-05-10T06:11:56;3.65;;;3.03;;
62437;SDS011;48481;0.000;0.000;2023-05-10T06:14:22;5.13;;;2.85;;
62437;SDS011;48481;0.000;0.000;2023-05-10T06:16:47;10.50;;;3.00;;
62437;SDS011;48481;0.000;0.000;2023-05-10T06:19:12;3.97;;;3.08;;
62437;SDS011;48481;0.000;0.000;2023-05-10T06:21:38;3.53;;;3.10;;
62437;SDS011;48481;0.000;0.000;2023-05-10T06:24:03;6.90;;;3.05;;
62437;SDS011;48481;0.000;0.000;2023-05-10T06:26:31;4.60;;;2.95;;
62437;SDS011;48481;0.000;0.000;2023-05-10T06:28:57;3.67;;;2.97;;
62437;SDS011;48481;0.000;0.000;2023-05-10T06:31:22;2.72;;;2.53;;
62437;SDS011;48481;0.000;0.000;2023-05-10T06:33:47;4.70;;;3.10;;
62437;SDS011;48481;0.000;0.000;2023-05-10T06:36:13;6.60;;;3.50;;
62437;SDS011;48481;0.000;0.000;2023-05-10T06:38:38;3.58;;;2.72;;
62437;SDS011;48481;0.000;0.000;2023-05-10T06:41:04;5.28;;;2.72;;
62437;SDS011;48481;0.000;0.000;2023-05-10T06:43:29;4.40;;;2.85;;
62437;SDS011;48481;0.000;0.000;2023-05-10T06:45:55;6.82;;;3.10;;
62437;SDS011;48481;0.000;0.000;2023-05-10T06:48:20;7.32;;;3.33;;
62437;SDS011;48481;0.000;0.000;2023-05-10T06:50:46;3.08;;;2.83;;
62437;SDS011;48481;0.000;0.000;2023-05-10T06:53:11;8.07;;;2.50;;
62437;SDS011;48481;0.000;0.000;2023-05-10T06:55:37;4.22;;;2.90;;
62437;SDS011;48481;0.000;0.000;2023-05-10T06:58:02;4.07;;;2.70;;
62437;SDS011;48481;0.000;0.000;2023-05-10T07:00:27;4.88;;;3.53;;
62437;SDS011;48481;0.000;0.000;2023-05-10T07:02:53;2.75;;;2.55;;
62437;SDS011;48481;0.000;0.000;2023-05-10T07:05:18;6.60;;;3.55;;
62437;SDS011;48481;0.000;0.000;2023-05-10T07:07:44;9.52;;;2.92;;
62437;SDS011;48481;0.000;0.000;2023-05-10T07:10:10;4.10;;;2.85;;
62437;SDS011;48481;0.000;0.000;2023-05-10T07:12:35;3.67;;;2.80;;
62437;SDS011;48481;0.000;0.000;2023-05-10T07:15:00;3.20;;;2.95;;
62437;SDS011;48481;0.000;0.000;2023-05-10T07:17:26;4.03;;;2.97;;
62437;SDS011;48481;0.000;0.000;2023-05-10T07:19:51;4.72;;;3.20;;
62437;SDS011;48481;0.000;0.000;2023-05-10T07:22:16;8.05;;;3.78;;
62437;SDS011;48481;0.000;0.000;2023-05-10T07:24:42;5.00;;;3.30;;
62437;SDS011;48481;0.000;0.000;2023-05-10T07:27:08;4.35;;;2.67;;
62437;SDS011;48481;0.000;0.000;2023-05-10T07:29:34;8.38;;;2.80;;
62437;SDS011;48481;0.000;0.000;2023-05-10T07:31:59;6.55;;;2.50;;
62437;SDS011;48481;0.000;0.000;2023-05-10T07:34:25;4.78;;;2.80;;
62437;SDS011;48481;0.000;0.000;2023-05-10T07:36:51;5.22;;;2.42;;
62437;SDS011;48481;0.000;0.000;2023-05-10T07:39:16;6.32;;;2.92;;
62437;SDS011;48481;0.000;0.000;2023-05-10T07:41:42;6.07;;;2.95;;
62437;SDS011;48481;0.000;0.000;2023-05-10T07:44:07;5.78;;;3.22;;
62437;SDS011;48481;0.000;0.000;2023-05-10T07:46:33;6.65;;;2.83;;
62437;SDS011;48481;0.000;0.000;2023-05-10T07:48:58;3.80;;;3.50;;
62437;SDS011;48481;0.000;0.000;2023-05-10T07:51:23;5.55;;;3.38;;
62437;SDS011;48481;0.000;0.000;2023-05-10T07:53:49;6.05;;;3.30;;
62437;SDS011;48481;0.000;0.000;2023-05-10T07:56:24;11.52;;;3.33;;
62437;SDS011;48481;0.000;0.000;2023-05-10T07:58:54;11.13;;;6.35;;
62437;SDS011;48481;0.000;0.000;2023-05-10T08:01:20;3.33;;;2.63;;
62437;SDS011;48481;0.000;0.000;2023-05-10T08:03:46;4.05;;;3.65;;
62437;SDS011;48481;0.000;0.000;2023-05-10T08:06:12;4.13;;;3.35;;
62437;SDS011;48481;0.000;0.000;2023-05-10T08:08:37;4.70;;;2.70;;
62437;SDS011;48481;0.000;0.000;2023-05-10T08:11:03;5.68;;;4.43;;
62437;SDS011;48481;0.000;0.000;2023-05-10T08:13:29;6.93;;;4.35;;
62437;SDS011;48481;0.000;0.000;2023-05-10T08:15:54;3.85;;;3.13;;
62437;SDS011;48481;0.000;0.000;2023-05-10T08:18:19;4.88;;;2.92;;
62437;SDS011;48481;0.000;0.000;2023-05-10T08:20:45;6.15;;;3.92;;
62437;SDS011;48481;0.000;0.000;2023-05-10T08:23:12;4.95;;;3.20;;
62437;SDS011;48481;0.000;0.000;2023-05-10T08:25:38;4.32;;;3.47;;
62437;SDS011;48481;0.000;0.000;2023-05-10T08:28:03;8.23;;;2.90;;
62437;SDS011;48481;0.000;0.000;2023-05-10T08:30:29;4.90;;;4.47;;
62437;SDS011;48481;0.000;0.000;2023-05-10T08:32:54;3.30;;;3.00;;
62437;SDS011;48481;0.000;0.000;2023-05-10T08:35:19;4.97;;;3.05;;
62437;SDS011;48481;0.000;0.000;2023-05-10T08:37:45;6.65;;;3.30;;
62437;SDS011;48481;0.000;0.000;2023-05-10T08:40:11;4.03;;;3.28;;
62437;SDS011;48481;0.000;0.000;2023-05-10T08:42:38;3.92;;;3.20;;
62437;SDS011;48481;0.000;0.000;2023-05-10T08:45:06;3.90;;;2.58;;
62437;SDS011;48481;0.000;0.000;2023-05-10T08:47:33;4.00;;;3.60;;
62437;SDS011;48481;0.000;0.000;2023-05-10T08:50:01;4.18;;;3.08;;
62437;SDS011;48481;0.000;0.000;2023-05-10T08:52:27;4.93;;;4.07;;
62437;SDS011;48481;0.000;0.000;2023-05-10T08:54:55;6.05;;;3.88;;
62437;SDS011;48481;0.000;0.000;2023-05-10T08:57:21;3.63;;;3.33;;
62437;SDS011;48481;0.000;0.000;2023-05-10T08:59:47;7.15;;;5.50;;
62437;SDS011;48481;0.000;0.000;2023-05-10T09:02:12;4.43;;;3.30;;
62437;SDS011;48481;0.000;0.000;2023-05-10T09:04:38;4.97;;;3.58;;
62437;SDS011;48481;0.000;0.000;2023-05-10T09:07:04;5.88;;;3.90;;
62437;SDS011;48481;0.000;0.000;2023-05-10T09:09:30;6.97;;;4.97;;
62437;SDS011;48481;0.000;0.000;2023-05-10T09:14:26;12.07;;;3.30;;
62437;SDS011;48481;0.000;0.000;2023-05-10T09:16:52;15.05;;;3.95;;
62437;SDS011;48481;0.000;0.000;2023-05-10T09:19:19;3.40;;;3.10;;
62437;SDS011;48481;0.000;0.000;2023-05-10T09:21:44;4.88;;;3.10;;
62437;SDS011;48481;0.000;0.000;2023-05-10T09:24:10;4.38;;;3.40;;
62437;SDS011;48481;0.000;0.000;2023-05-10T09:26:46;9.73;;;3.78;;
62437;SDS011;48481;0.000;0.000;2023-05-10T09:29:13;5.40;;;3.47;;
62437;SDS011;48481;0.000;0.000;2023-05-10T09:31:49;19.70;;;4.43;;
62437;SDS011;48481;0.000;0.000;2023-05-10T09:34:18;8.38;;;3.78;;
62437;SDS011;48481;0.000;0.000;2023-05-10T09:36:50;4.07;;;3.78;;
62437;SDS011;48481;0.000;0.000;2023-05-10T09:39:16;5.15;;;3.58;;
62437;SDS011;48481;0.000;0.000;2023-05-10T09:41:43;7.45;;;4.05;;
62437;SDS011;48481;0.000;0.000;2023-05-10T09:44:09;9.45;;;4.65;;
62437;SDS011;48481;0.000;0.000;2023-05-10T09:46:37;3.88;;;3.58;;
62437;SDS011;48481;0.000;0.000;2023-05-10T09:49:02;9.85;;;4.13;;
62437;SDS011;48481;0.000;0.000;2023-05-10T09:51:28;5.63;;;3.75;;
62437;SDS011;48481;0.000;0.000;2023-05-10T09:56:39;4.30;;;3.55;;
62437;SDS011;48481;0.000;0.000;2023-05-10T09:59:05;5.38;;;4.68;;
62437;SDS011;48481;0.000;0.000;2023-05-10T10:01:32;5.03;;;4.57;;
62437;SDS011;48481;0.000;0.000;2023-05-10T10:03:58;6.82;;;4.15;;
62437;SDS011;48481;0.000;0.000;2023-05-10T10:06:24;4.90;;;4.07;;
62437;SDS011;48481;0.000;0.000;2023-05-10T10:08:50;10.43;;;5.55;;
62437;SDS011;48481;0.000;0.000;2023-05-10T10:11:16;9.93;;;4.85;;
62437;SDS011;48481;0.000;0.000;2023-05-10T10:13:42;8.57;;;5.93;;
62437;SDS011;48481;0.000;0.000;2023-05-10T10:16:08;8.48;;;5.68;;
62437;SDS011;48481;0.000;0.000;2023-05-10T10:18:34;7.03;;;5.07;;
62437;SDS011;48481;0.000;0.000;2023-05-10T10:21:04;9.48;;;5.18;;
62437;SDS011;48481;0.000;0.000;2023-05-10T10:23:34;6.50;;;5.90;;
62437;SDS011;48481;0.000;0.000;2023-05-10T10:26:00;5.60;;;5.03;;
62437;SDS011;48481;0.000;0.000;2023-05-10T10:34:06;6.82;;;5.70;;
62437;SDS011;48481;0.000;0.000;2023-05-10T10:36:54;8.48;;;4.78;;
62437;SDS011;48481;0.000;0.000;2023-05-10T10:39:20;11.50;;;7.28;;
62437;SDS011;48481;0.000;0.000;2023-05-10T10:41:49;9.77;;;6.75;;
62437;SDS011;48481;0.000;0.000;2023-05-10T10:47:02;6.85;;;6.20;;
62437;SDS011;48481;0.000;0.000;2023-05-10T10:49:31;5.53;;;5.03;;
62437;SDS011;48481;0.000;0.000;2023-05-10T10:55:03;6.32;;;4.93;;
62437;SDS011;48481;0.000;0.000;2023-05-10T11:00:35;13.43;;;6.82;;
62437;SDS011;48481;0.000;0.000;2023-05-10T11:03:09;11.85;;;7.68;;
62437;SDS011;48481;0.000;0.000;2023-05-10T11:05:42;8.32;;;6.35;;
62437;SDS011;48481;0.000;0.000;2023-05-10T11:10:39;5.90;;;5.35;;
62437;SDS011;48481;0.000;0.000;2023-05-10T11:13:13;5.35;;;4.85;;
62437;SDS011;48481;0.000;0.000;2023-05-10T11:15:39;9.48;;;6.57;;
62437;SDS011;48481;0.000;0.000;2023-05-10T11:18:18;8.32;;;6.43;;
62437;SDS011;48481;0.000;0.000;2023-05-10T11:20:58;54.25;;;24.75;;
62437;SDS011;48481;0.000;0.000;2023-05-10T11:26:08;19.13;;;11.10;;
62437;SDS011;48481;0.000;0.000;2023-05-10T11:28:34;21.83;;;12.63;;
62437;SDS011;48481;0.000;0.000;2023-05-10T11:31:06;14.32;;;9.13;;
62437;SDS011;48481;0.000;0.000;2023-05-10T11:33:31;36.13;;;23.90;;
62437;SDS011;48481;0.000;0.000;2023-05-10T11:36:10;14.60;;;11.02;;
62437;SDS011;48481;0.000;0.000;2023-05-10T11:38:36;5.90;;;5.32;;
62437;SDS011;48481;0.000;0.000;2023-05-10T11:41:02;7.22;;;5.80;;
62437;SDS011;48481;0.000;0.000;2023-05-10T11:43:27;7.78;;;5.65;;
62437;SDS011;48481;0.000;0.000;2023-05-10T11:45:55;9.82;;;5.72;;
62437;SDS011;48481;0.000;0.000;2023-05-10T11:48:21;6.47;;;5.88;;
62437;SDS011;48481;0.000;0.000;2023-05-10T11:50:49;6.80;;;5.85;;
62437;SDS011;48481;0.000;0.000;2023-05-10T11:53:15;9.18;;;6.90;;
62437;SDS011;48481;0.000;0.000;2023-05-10T11:55:40;8.00;;;6.60;;
62437;SDS011;48481;0.000;0.000;2023-05-10T11:58:05;8.25;;;7.45;;
62437;SDS011;48481;0.000;0.000;2023-05-10T12:00:31;7.65;;;6.85;;
62437;SDS011;48481;0.000;0.000;2023-05-10T12:02:57;7.82;;;7.03;;
62437;SDS011;48481;0.000;0.000;2023-05-10T12:05:23;7.50;;;6.80;;
62437;SDS011;48481;0.000;0.000;2023-05-10T12:07:49;9.80;;;7.00;;
62437;SDS011;48481;0.000;0.000;2023-05-10T12:10:14;10.73;;;6.95;;
62437;SDS011;48481;0.000;0.000;2023-05-10T12:12:46;10.85;;;7.00;;
62437;SDS011;48481;0.000;0.000;2023-05-10T12:20:16;10.15;;;6.43;;
62437;SDS011;48481;0.000;0.000;2023-05-10T12:22:55;7.00;;;6.25;;
62437;SDS011;48481;0.000;0.000;2023-05-10T12:25:23;10.48;;;5.70;;
62437;SDS011;48481;0.000;0.000;2023-05-10T12:27:53;6.25;;;5.65;;
62437;SDS011;48481;0.000;0.000;2023-05-10T12:30:26;5.50;;;5.00;;
62437;SDS011;48481;0.000;0.000;2023-05-10T12:32:53;6.05;;;5.57;;
62437;SDS011;48481;0.000;0.000;2023-05-10T12:35:19;7.95;;;5.57;;
62437;SDS011;48481;0.000;0.000;2023-05-10T12:37:47;10.32;;;6.20;;
62437;SDS011;48481;0.000;0.000;2023-05-10T12:40:12;6.80;;;6.15;;
62437;SDS011;48481;0.000;0.000;2023-05-10T12:42:38;13.00;;;6.72;;
62437;SDS011;48481;0.000;0.000;2023-05-10T12:45:05;13.50;;;9.38;;
62437;SDS011;48481;0.000;0.000;2023-05-10T12:47:31;14.20;;;8.45;;
62437;SDS011;48481;0.000;0.000;2023-05-10T12:49:57;12.80;;;8.57;;
62437;SDS011;48481;0.000;0.000;2023-05-10T12:52:26;14.35;;;9.43;;
62437;SDS011;48481;0.000;0.000;2023-05-10T12:54:52;12.45;;;7.65;;
62437;SDS011;48481;0.000;0.000;2023-05-10T12:57:18;6.70;;;6.10;;
62437;SDS011;48481;0.000;0.000;2023-05-10T12:59:43;7.07;;;5.45;;
62437;SDS011;48481;0.000;0.000;2023-05-10T13:02:09;7.57;;;5.40;;
62437;SDS011;48481;0.000;0.000;2023-05-10T13:04:35;7.05;;;5.75;;
62437;SDS011;48481;0.000;0.000;2023-05-10T13:07:04;13.45;;;10.45;;
62437;SDS011;48481;0.000;0.000;2023-05-10T13:09:30;18.30;;;12.43;;
62437;SDS011;48481;0.000;0.000;2023-05-10T13:11:55;12.75;;;7.90;;
62437;SDS011;48481;0.000;0.000;2023-05-10T13:14:21;10.57;;;7.40;;
62437;SDS011;48481;0.000;0.000;2023-05-10T13:16:46;19.83;;;11.65;;
62437;SDS011;48481;0.000;0.000;2023-05-10T13:19:13;19.98;;;11.90;;
62437;SDS011;48481;0.000;0.000;2023-05-10T13:21:39;34.55;;;20.25;;
62437;SDS011;48481;0.000;0.000;2023-05-10T13:24:06;8.65;;;7.03;;
62437;SDS011;48481;0.000;0.000;2023-05-10T13:26:32;5.75;;;5.10;;
62437;SDS011;48481;0.000;0.000;2023-05-10T13:28:57;8.02;;;4.78;;
62437;SDS011;48481;0.000;0.000;2023-05-10T13:31:22;6.18;;;5.55;;
62437;SDS011;48481;0.000;0.000;2023-05-10T13:33:48;19.27;;;10.13;;
62437;SDS011;48481;0.000;0.000;2023-05-10T13:36:13;22.77;;;12.68;;
62437;SDS011;48481;0.000;0.000;2023-05-10T13:38:39;8.50;;;6.43;;
62437;SDS011;48481;0.000;0.000;2023-05-10T13:41:04;5.82;;;5.38;;
62437;SDS011;48481;0.000;0.000;2023-05-10T13:43:30;4.85;;;4.35;;
62437;SDS011;48481;0.000;0.000;2023-05-10T13:45:55;6.43;;;4.75;;
62437;SDS011;48481;0.000;0.000;2023-05-10T13:48:21;5.72;;;5.22;;
62437;SDS011;48481;0.000;0.000;2023-05-10T13:50:46;4.45;;;4.15;;
62437;SDS011;48481;0.000;0.000;2023-05-10T13:53:12;4.93;;;4.10;;
62437;SDS011;48481;0.000;0.000;2023-05-10T13:55:37;5.53;;;3.90;;
62437;SDS011;48481;0.000;0.000;2023-05-10T13:58:03;5.82;;;3.85;;
62437;SDS011;48481;0.000;0.000;2023-05-10T14:00:28;6.78;;;6.18;;
62437;SDS011;48481;0.000;0.000;2023-05-10T14:02:54;9.77;;;8.43;;
62437;SDS011;48481;0.000;0.000;2023-05-10T14:05:20;12.75;;;8.27;;
62437;SDS011;48481;0.000;0.000;2023-05-10T14:07:48;11.70;;;7.45;;
62437;SDS011;48481;0.000;0.000;2023-05-10T14:10:15;7.28;;;6.38;;
62437;SDS011;48481;0.000;0.000;2023-05-10T14:12:40;6.20;;;4.88;;
62437;SDS011;48481;0.000;0.000;2023-05-10T14:15:06;5.22;;;4.70;;
62437;SDS011;48481;0.000;0.000;2023-05-10T14:17:32;6.30;;;5.70;;
62437;SDS011;48481;0.000;0.000;2023-05-10T14:19:57;13.30;;;10.90;;
62437;SDS011;48481;0.000;0.000;2023-05-10T14:22:23;5.28;;;4.78;;
62437;SDS011;48481;0.000;0.000;2023-05-10T14:24:48;4.50;;;4.07;;
62437;SDS011;48481;0.000;0.000;2023-05-10T14:27:14;4.70;;;4.30;;
62437;SDS011;48481;0.000;0.000;2023-05-10T14:29:40;4.70;;;4.22;;
62437;SDS011;48481;0.000;0.000;2023-05-10T14:32:05;4.25;;;3.95;;
62437;SDS011;48481;0.000;0.000;2023-05-10T14:34:30;5.22;;;4.13;;
62437;SDS011;48481;0.000;0.000;2023-05-10T14:36:56;4.85;;;4.28;;
62437;SDS011;48481;0.000;0.000;2023-05-10T14:39:21;5.50;;;5.00;;
62437;SDS011;48481;0.000;0.000;2023-05-10T14:41:47;5.38;;;4.88;;
62437;SDS011;48481;0.000;0.000;2023-05-10T14:44:13;4.90;;;4.50;;
62437;SDS011;48481;0.000;0.000;2023-05-10T14:46:40;5.25;;;4.85;;
62437;SDS011;48481;0.000;0.000;2023-05-10T14:49:06;6.75;;;4.85;;
62437;SDS011;48481;0.000;0.000;2023-05-10T14:51:32;4.72;;;4.32;;
62437;SDS011;48481;0.000;0.000;2023-05-10T14:53:57;5.15;;;4.70;;
62437;SDS011;48481;0.000;0.000;2023-05-10T14:56:23;4.82;;;4.45;;
62437;SDS011;48481;0.000;0.000;2023-05-10T14:58:49;6.60;;;4.45;;
62437;SDS011;48481;0.000;0.000;2023-05-10T15:01:15;6.28;;;5.68;;
62437;SDS011;48481;0.000;0.000;2023-05-10T15:03:40;6.93;;;6.00;;
62437;SDS011;48481;0.000;0.000;2023-05-10T15:06:06;7.43;;;6.50;;
62437;SDS011;48481;0.000;0.000;2023-05-10T15:08:32;7.43;;;4.43;;
62437;SDS011;48481;0.000;0.000;2023-05-10T15:10:58;5.00;;;4.60;;
62437;SDS011;48481;0.000;0.000;2023-05-10T15:13:23;5.60;;;4.75;;
62437;SDS011;48481;0.000;0.000;2023-05-10T15:15:49;5.78;;;5.18;;
62437;SDS011;48481;0.000;0.000;2023-05-10T15:18:14;5.75;;;4.90;;
62437;SDS011;48481;0.000;0.000;2023-05-10T15:20:40;5.53;;;5.03;;
62437;SDS011;48481;0.000;0.000;2023-05-10T15:23:05;4.88;;;4.38;;
62437;SDS011;48481;0.000;0.000;2023-05-10T15:25:33;4.25;;;3.95;;
62437;SDS011;48481;0.000;0.000;2023-05-10T15:28:02;4.85;;;4.45;;
62437;SDS011;48481;0.000;0.000;2023-05-10T15:30:28;5.32;;;4.82;;
62437;SDS011;48481;0.000;0.000;2023-05-10T15:32:54;7.60;;;4.45;;
62437;SDS011;48481;0.000;0.000;2023-05-10T15:35:20;5.53;;;4.68;;
62437;SDS011;48481;0.000;0.000;2023-05-10T15:37:46;5.70;;;5.10;;